createdAt,value
2022-09-11T00:00:44.444Z,1017.758606
2022-09-11T00:02:41.454Z,1017.82373
2022-09-11T00:03:44.031Z,1017.815979
2022-09-11T00:04:39.277Z,1017.780884
2022-09-11T00:05:42.238Z,1017.761963
2022-09-11T00:08:20.604Z,1017.772888
2022-09-11T00:08:59.542Z,1017.728271
2022-09-11T00:09:57.487Z,1017.708862
2022-09-11T00:10:55.662Z,1017.755371
2022-09-11T00:12:52.116Z,1017.687073
2022-09-11T00:13:55.307Z,1017.666321
2022-09-11T00:14:48.652Z,1017.777771
2022-09-11T00:15:49.101Z,1017.715637
2022-09-11T00:16:49.070Z,1017.789001
2022-09-11T00:17:51.213Z,1017.768311
2022-09-11T00:18:47.469Z,1017.75238
2022-09-11T00:19:47.330Z,1017.774658
2022-09-11T00:20:44.038Z,1017.812805
2022-09-11T00:22:42.611Z,1017.811584
2022-09-11T00:23:44.006Z,1017.86853
2022-09-11T00:24:36.050Z,1017.856201
2022-09-11T00:25:34.399Z,1017.786133
2022-09-11T00:27:33.236Z,1017.905396
2022-09-11T00:28:36.237Z,1017.908264
2022-09-11T00:29:31.871Z,1017.911804
2022-09-11T00:30:36.998Z,1018.019897
2022-09-11T00:31:29.837Z,1017.959473
2022-09-11T00:32:31.369Z,1017.94635
2022-09-11T00:33:25.524Z,1017.94989
2022-09-11T00:34:26.520Z,1018.011536
2022-09-11T00:35:22.837Z,1017.938843
2022-09-11T00:36:29.151Z,1017.997681
2022-09-11T00:37:23.322Z,1018.043274
2022-09-11T00:38:26.156Z,1018.056458
2022-09-11T00:39:20.348Z,1018.030701
2022-09-11T00:40:26.343Z,1018.030701
2022-09-11T00:42:21.900Z,1018.037048
2022-09-11T00:43:17.422Z,1018.016357
2022-09-11T00:45:11.970Z,1018.041748
2022-09-11T00:45:47.950Z,1017.994507
2022-09-11T00:47:51.572Z,1017.951233
2022-09-11T00:48:49.323Z,1017.98468
2022-09-11T00:49:45.779Z,1017.863586
2022-09-11T00:50:42.423Z,1017.962646
2022-09-11T00:51:41.907Z,1017.957886
2022-09-11T00:52:38.785Z,1017.964355
2022-09-11T00:53:45.076Z,1018.013489
2022-09-11T00:54:41.765Z,1018.035706
2022-09-11T00:55:41.786Z,1018.058105
2022-09-11T00:56:39.154Z,1018.127991
2022-09-11T00:57:38.270Z,1018.09613
2022-09-11T00:58:33.455Z,1018.088257
2022-09-11T00:59:34.759Z,1018.153503
2022-09-11T01:00:36.049Z,1018.091431
2022-09-11T01:02:39.444Z,1018.129639
2022-09-11T01:03:39.536Z,1018.097717
2022-09-11T01:04:39.109Z,1018.197998
2022-09-11T01:05:48.986Z,1018.227966
2022-09-11T01:06:47.250Z,1018.227966
2022-09-11T01:07:44.968Z,1018.142273
2022-09-11T01:08:49.904Z,1018.218506
2022-09-11T01:09:42.076Z,1018.175537
2022-09-11T01:10:42.068Z,1018.175537
2022-09-11T01:11:38.107Z,1018.191406
2022-09-11T01:12:38.055Z,1018.218506
2022-09-11T01:13:34.244Z,1018.213623
2022-09-11T01:14:37.558Z,1018.298035
2022-09-11T01:15:29.667Z,1018.236389
2022-09-11T01:16:31.673Z,1018.213623
2022-09-11T01:17:33.486Z,1018.290466
2022-09-11T01:18:34.582Z,1018.274597
2022-09-11T01:19:29.521Z,1018.293152
2022-09-11T01:20:31.738Z,1018.212158
2022-09-11T01:22:24.894Z,1018.217041
2022-09-11T01:23:21.713Z,1018.305786
2022-09-11T01:24:55.531Z,1018.239197
2022-09-11T01:27:16.606Z,1018.11499
2022-09-11T01:27:56.746Z,1018.178528
2022-09-11T01:28:53.882Z,1018.256348
2022-09-11T01:30:00.895Z,1018.281982
2022-09-11T01:31:01.503Z,1018.25647
2022-09-11T01:32:57.248Z,1018.318359
2022-09-11T01:33:51.680Z,1018.270813
2022-09-11T01:34:54.147Z,1018.3125
2022-09-11T01:35:52.280Z,1018.388794
2022-09-11T01:37:49.333Z,1018.39502
2022-09-11T01:38:50.561Z,1018.414246
2022-09-11T01:39:45.092Z,1018.406128
2022-09-11T01:40:45.156Z,1018.425354
2022-09-11T01:41:41.556Z,1018.452393
2022-09-11T01:42:40.554Z,1018.517578
2022-09-11T01:43:38.741Z,1018.47467
2022-09-11T01:44:36.145Z,1018.47467
2022-09-11T01:45:36.631Z,1018.539734
2022-09-11T01:46:31.863Z,1018.50946
2022-09-11T01:47:31.989Z,1018.555725
2022-09-11T01:48:28.189Z,1018.528748
2022-09-11T01:49:34.887Z,1018.477539
2022-09-11T01:50:26.593Z,1018.50946
2022-09-11T01:52:22.415Z,1018.522217
2022-09-11T01:53:22.809Z,1018.557129
2022-09-11T01:54:17.530Z,1018.549316
2022-09-11T01:55:21.102Z,1018.549316
2022-09-11T01:57:16.356Z,1018.555664
2022-09-11T01:57:54.585Z,1018.545837
2022-09-11T01:58:58.549Z,1018.575989
2022-09-11T01:59:53.978Z,1018.503296
2022-09-11T02:00:56.769Z,1018.611511
2022-09-11T02:02:53.657Z,1018.595703
2022-09-11T02:03:53.274Z,1018.625488
2022-09-11T02:04:52.588Z,1018.628906
2022-09-11T02:05:52.421Z,1018.613098
2022-09-11T02:07:48.574Z,1018.559021
2022-09-11T02:08:43.482Z,1018.550659
2022-09-11T02:09:46.352Z,1018.613098
2022-09-11T02:10:41.591Z,1018.683044
2022-09-11T02:12:42.413Z,1018.676758
2022-09-11T02:13:43.206Z,1018.700134
2022-09-11T02:14:38.992Z,1018.595703
2022-09-11T02:15:43.199Z,1018.684204
2022-09-11T02:16:39.267Z,1018.654419
2022-09-11T02:17:40.883Z,1018.643372
2022-09-11T02:18:40.512Z,1018.62738
2022-09-11T02:19:35.378Z,1018.62738
2022-09-11T02:20:34.904Z,1018.616394
2022-09-11T02:22:30.128Z,1018.631653
2022-09-11T02:23:27.420Z,1018.566528
2022-09-11T02:24:27.955Z,1018.585632
2022-09-11T02:25:25.166Z,1018.558594
2022-09-11T02:26:30.108Z,1018.590454
2022-09-11T02:27:25.228Z,1018.536377
2022-09-11T02:28:29.111Z,1018.641296
2022-09-11T02:29:25.363Z,1018.57605
2022-09-11T02:30:25.249Z,1018.591919
2022-09-11T02:32:21.660Z,1018.574585
2022-09-11T02:32:46.108Z,1018.569336
2022-09-11T02:33:47.158Z,1018.609131
2022-09-11T02:34:49.192Z,1018.575745
2022-09-11T02:35:44.012Z,1018.559753
2022-09-11T02:37:44.837Z,1018.60437
2022-09-11T02:38:44.222Z,1018.58844
2022-09-11T02:39:42.367Z,1018.603333
2022-09-11T02:40:42.066Z,1018.614258
2022-09-11T02:42:49.689Z,1018.555481
2022-09-11T02:43:50.221Z,1018.612305
2022-09-11T02:44:53.097Z,1018.588867
2022-09-11T02:45:52.454Z,1018.569336
2022-09-11T02:46:47.177Z,1018.577759
2022-09-11T02:47:48.360Z,1018.669983
2022-09-11T02:48:43.826Z,1018.580444
2022-09-11T02:49:46.734Z,1018.627014
2022-09-11T02:50:42.097Z,1018.553467
2022-09-11T02:51:44.828Z,1018.585205
2022-09-11T02:52:41.139Z,1018.658936
2022-09-11T02:53:38.611Z,1018.615906
2022-09-11T02:54:46.183Z,1018.588867
2022-09-11T02:55:38.837Z,1018.623413
2022-09-11T02:56:39.460Z,1018.621887
2022-09-11T02:57:35.954Z,1018.599609
2022-09-11T02:58:39.549Z,1018.631348
2022-09-11T02:59:41.678Z,1018.653748
2022-09-11T03:00:44.324Z,1018.700256
2022-09-11T03:01:38.705Z,1018.642578
2022-09-11T03:02:36.049Z,1018.63501
2022-09-11T03:03:37.500Z,1018.700256
2022-09-11T03:04:33.843Z,1018.641296
2022-09-11T03:05:34.694Z,1018.754333
2022-09-11T03:07:31.769Z,1018.766602
2022-09-11T03:08:37.357Z,1018.786255
2022-09-11T03:09:37.031Z,1018.673157
2022-09-11T03:10:40.766Z,1018.77655
2022-09-11T03:11:36.983Z,1018.745972
2022-09-11T03:13:13.313Z,1018.784119
2022-09-11T03:15:40.886Z,1018.628174
2022-09-11T03:16:15.459Z,1018.712524
2022-09-11T03:17:11.856Z,1018.639465
2022-09-11T03:18:10.623Z,1018.69519
2022-09-11T03:19:04.231Z,1018.746399
2022-09-11T03:20:02.494Z,1018.770325
2022-09-11T03:20:56.621Z,1018.678528
2022-09-11T03:21:56.063Z,1018.718384
2022-09-11T03:22:51.480Z,1018.747131
2022-09-11T03:23:49.794Z,1018.795044
2022-09-11T03:24:45.976Z,1018.758484
2022-09-11T03:25:47.842Z,1018.784119
2022-09-11T03:26:39.474Z,1018.813843
2022-09-11T03:27:38.395Z,1018.779297
2022-09-11T03:28:32.867Z,1018.873047
2022-09-11T03:29:33.705Z,1018.856995
2022-09-11T03:30:30.899Z,1018.833435
2022-09-11T03:32:30.325Z,1018.879883
2022-09-11T03:33:27.514Z,1018.783936
2022-09-11T03:34:33.467Z,1018.903259
2022-09-11T03:35:26.535Z,1018.974976
2022-09-11T03:36:26.334Z,1018.908569
2022-09-11T03:37:20.686Z,1018.987366
2022-09-11T03:38:20.425Z,1018.967224
2022-09-11T03:39:18.445Z,1018.927307
2022-09-11T03:40:19.557Z,1018.984741
2022-09-11T03:42:11.493Z,1018.990967
2022-09-11T03:43:10.285Z,1018.978088
2022-09-11T03:44:07.882Z,1018.91925
2022-09-11T03:45:10.937Z,1019.019592
2022-09-11T03:46:10.402Z,1019.057861
2022-09-11T03:47:04.626Z,1019.119812
2022-09-11T03:48:07.712Z,1018.995605
2022-09-11T03:49:09.716Z,1019.014954
2022-09-11T03:50:07.669Z,1019.061462
2022-09-11T03:51:01.898Z,1019.08844
2022-09-11T03:51:59.691Z,1019.107117
2022-09-11T03:52:55.350Z,1019.091248
2022-09-11T03:53:52.149Z,1019.056702
2022-09-11T03:54:55.221Z,1019.097534
2022-09-11T03:55:46.711Z,1019.063049
2022-09-11T03:57:46.004Z,1019.08374
2022-09-11T03:59:29.503Z,1019.11676
2022-09-11T04:00:09.451Z,1019.077026
2022-09-11T04:02:07.208Z,1019.132568
2022-09-11T04:03:07.553Z,1019.0849
2022-09-11T04:04:02.733Z,1019.080017
2022-09-11T04:05:02.944Z,1019.067383
2022-09-11T04:06:05.012Z,1019.10553
2022-09-11T04:07:59.832Z,1019.0849
2022-09-11T04:09:06.672Z,1019.142578
2022-09-11T04:10:06.190Z,1019.219055
2022-09-11T04:11:12.105Z,1019.164917
2022-09-11T04:12:08.286Z,1019.207458
2022-09-11T04:13:04.686Z,1019.229614
2022-09-11T04:14:07.743Z,1019.202515
2022-09-11T04:15:00.213Z,1019.229614
2022-09-11T04:16:05.149Z,1019.213684
2022-09-11T04:18:05.585Z,1019.242371
2022-09-11T04:18:57.847Z,1019.229675
2022-09-11T04:19:57.144Z,1019.329712
2022-09-11T04:20:55.123Z,1019.278992
2022-09-11T04:21:58.260Z,1019.290161
2022-09-11T04:22:53.747Z,1019.27417
2022-09-11T04:23:53.649Z,1019.258301
2022-09-11T04:24:47.927Z,1019.320251
2022-09-11T04:25:47.273Z,1019.300171
2022-09-11T04:26:42.097Z,1019.31604
2022-09-11T04:27:44.951Z,1019.246033
2022-09-11T04:28:37.615Z,1019.295288
2022-09-11T04:29:39.084Z,1019.248718
2022-09-11T04:30:32.030Z,1019.27301
2022-09-11T04:31:37.816Z,1019.296448
2022-09-11T04:32:31.320Z,1019.26947
2022-09-11T04:33:33.598Z,1019.334595
2022-09-11T04:34:29.105Z,1019.250671
2022-09-11T04:35:31.475Z,1019.350586
2022-09-11T04:37:22.675Z,1019.358948
2022-09-11T04:38:29.019Z,1019.343018
2022-09-11T04:40:17.947Z,1019.248596
2022-09-11T04:41:01.748Z,1019.285339
2022-09-11T04:42:01.297Z,1019.325195
2022-09-11T04:43:04.502Z,1019.317078
2022-09-11T04:44:05.256Z,1019.307556
2022-09-11T04:45:04.787Z,1019.33783
2022-09-11T04:47:08.533Z,1019.30603
2022-09-11T04:48:11.503Z,1019.237671
2022-09-11T04:49:13.823Z,1019.243958
2022-09-11T04:50:12.104Z,1019.239319
2022-09-11T04:52:18.332Z,1019.313965
2022-09-11T04:53:18.764Z,1019.331848
2022-09-11T04:54:19.321Z,1019.275696
2022-09-11T04:55:15.803Z,1019.368042
2022-09-11T04:56:16.694Z,1019.352112
2022-09-11T04:57:22.233Z,1019.398682
2022-09-11T04:58:21.050Z,1019.420959
2022-09-11T04:59:20.221Z,1019.362
2022-09-11T05:00:21.349Z,1019.364685
2022-09-11T05:01:21.001Z,1019.34613
2022-09-11T05:02:21.091Z,1019.375793
2022-09-11T05:03:28.859Z,1019.379456
2022-09-11T05:04:26.407Z,1019.422485
2022-09-11T05:05:26.646Z,1019.456909
2022-09-11T05:06:26.028Z,1019.450562
2022-09-11T05:07:23.116Z,1019.362
2022-09-11T05:08:26.746Z,1019.373108
2022-09-11T05:09:22.617Z,1019.391724
2022-09-11T05:11:10.951Z,1019.414612
2022-09-11T05:11:50.679Z,1019.471436
2022-09-11T05:12:49.069Z,1019.437988
2022-09-11T05:13:47.852Z,1019.495361
2022-09-11T05:15:42.303Z,1019.478271
2022-09-11T05:17:47.079Z,1019.484619
2022-09-11T05:18:44.510Z,1019.541443
2022-09-11T05:19:44.362Z,1019.544983
2022-09-11T05:20:41.433Z,1019.567139
2022-09-11T05:21:41.187Z,1019.509583
2022-09-11T05:22:39.089Z,1019.585815
2022-09-11T05:23:43.417Z,1019.605408
2022-09-11T05:24:35.207Z,1019.558777
2022-09-11T05:25:42.047Z,1019.569946
2022-09-11T05:27:43.677Z,1019.596985
2022-09-11T05:28:39.159Z,1019.659546
2022-09-11T05:29:40.055Z,1019.635193
2022-09-11T05:30:35.260Z,1019.724731
2022-09-11T05:32:37.789Z,1019.751709
2022-09-11T05:33:40.389Z,1019.681641
2022-09-11T05:34:37.501Z,1019.716309
2022-09-11T05:35:39.147Z,1019.732239
2022-09-11T05:37:36.073Z,1019.757813
2022-09-11T05:39:31.460Z,1019.770996
2022-09-11T05:40:30.367Z,1019.820313
2022-09-11T05:41:32.570Z,1019.809143
2022-09-11T05:42:25.201Z,1019.81189
2022-09-11T05:43:24.934Z,1019.850037
2022-09-11T05:44:24.049Z,1019.861145
2022-09-11T05:45:23.131Z,1019.856262
2022-09-11T05:46:21.169Z,1019.829285
2022-09-11T05:47:22.150Z,1019.875854
2022-09-11T05:48:20.060Z,1019.902893
2022-09-11T05:49:19.924Z,1019.87854
2022-09-11T05:51:03.807Z,1019.870972
2022-09-11T05:51:26.815Z,1019.893005
2022-09-11T05:52:28.203Z,1019.944092
2022-09-11T05:53:26.645Z,1019.964966
2022-09-11T05:54:29.997Z,1019.960083
2022-09-11T05:55:29.511Z,1019.908936
2022-09-11T05:56:27.080Z,1020.001343
2022-09-11T05:57:28.323Z,1019.981018
2022-09-11T05:58:23.822Z,1019.951904
2022-09-11T05:59:27.166Z,1019.963013
2022-09-11T06:00:20.269Z,1019.939575
2022-09-11T06:01:21.251Z,1020.025513
2022-09-11T06:02:19.268Z,1020.005981
2022-09-11T06:03:18.556Z,1020.047668
2022-09-11T06:04:21.297Z,1020.074829
2022-09-11T06:05:23.719Z,1020.039307
2022-09-11T06:10:13.004Z,1020.032471
2022-09-11T06:10:53.707Z,1020.011597
2022-09-11T06:11:51.689Z,1020.053162
2022-09-11T06:12:50.466Z,1020.02301
2022-09-11T06:13:44.837Z,1019.980408
2022-09-11T06:14:42.223Z,1020.042603
2022-09-11T06:15:46.487Z,1019.985657
2022-09-11T06:15:46.510Z,1019.985657
2022-09-11T06:15:47.262Z,1019.985657
2022-09-11T06:16:35.802Z,1020.119019
2022-09-11T06:17:29.299Z,1020.087341
2022-09-11T06:18:28.077Z,1020.131714
2022-09-11T06:19:24.337Z,1020.19574
2022-09-11T06:20:22.601Z,1020.243591
2022-09-11T06:21:16.030Z,1020.21814
2022-09-11T06:23:35.770Z,1020.250244
2022-09-11T06:24:16.792Z,1020.223145
2022-09-11T06:25:14.185Z,1020.28479
2022-09-11T06:27:15.772Z,1020.310425
2022-09-11T06:28:17.990Z,1020.226013
2022-09-11T06:29:13.545Z,1020.302856
2022-09-11T06:30:14.007Z,1020.28479
2022-09-11T06:31:08.695Z,1020.301941
2022-09-11T06:32:08.327Z,1020.270142
2022-09-11T06:33:04.332Z,1020.225891
2022-09-11T06:34:08.434Z,1020.235474
2022-09-11T06:35:04.629Z,1020.303589
2022-09-11T06:36:16.540Z,1020.376953
2022-09-11T06:37:15.890Z,1020.318054
2022-09-11T06:38:15.684Z,1020.273682
2022-09-11T06:39:11.791Z,1020.292786
2022-09-11T06:40:12.501Z,1020.315063
2022-09-11T06:41:07.533Z,1020.329163
2022-09-11T06:42:07.253Z,1020.313232
2022-09-11T06:43:04.232Z,1020.300659
2022-09-11T06:44:06.222Z,1020.268677
2022-09-11T06:45:00.355Z,1020.263916
2022-09-11T06:46:01.128Z,1020.290894
2022-09-11T06:46:57.396Z,1020.271851
2022-09-11T06:48:00.962Z,1020.286194
2022-09-11T06:48:56.222Z,1020.227234
2022-09-11T06:49:59.486Z,1020.308411
2022-09-11T06:50:54.838Z,1020.29248
2022-09-11T06:52:51.183Z,1020.287537
2022-09-11T06:53:51.519Z,1020.30719
2022-09-11T06:54:46.895Z,1020.309692
2022-09-11T06:55:48.932Z,1020.352844
2022-09-11T06:57:37.748Z,1020.322998
2022-09-11T06:58:01.456Z,1020.372009
2022-09-11T06:59:05.138Z,1020.356079
2022-09-11T07:00:02.473Z,1020.352173
2022-09-11T07:01:03.367Z,1020.273743
2022-09-11T07:03:03.228Z,1020.346924
2022-09-11T07:04:01.555Z,1020.322876
2022-09-11T07:04:59.734Z,1020.345093
2022-09-11T07:05:58.971Z,1020.402527
2022-09-11T07:07:58.389Z,1020.327698
2022-09-11T07:08:53.747Z,1020.354797
2022-09-11T07:09:54.814Z,1020.357605
2022-09-11T07:10:50.229Z,1020.368896
2022-09-11T07:12:49.584Z,1020.306946
2022-09-11T07:13:50.018Z,1020.403931
2022-09-11T07:14:46.252Z,1020.43103
2022-09-11T07:15:46.537Z,1020.388062
2022-09-11T07:16:41.579Z,1020.392883
2022-09-11T07:17:41.016Z,1020.376953
2022-09-11T07:18:47.176Z,1020.419922
2022-09-11T07:19:37.497Z,1020.435913
2022-09-11T07:20:33.913Z,1020.375488
2022-09-11T07:21:37.756Z,1020.442322
2022-09-11T07:22:30.381Z,1020.407288
2022-09-11T07:23:31.650Z,1020.399231
2022-09-11T07:24:33.657Z,1020.437439
2022-09-11T07:25:35.182Z,1020.464539
2022-09-11T07:27:31.228Z,1020.483765
2022-09-11T07:28:27.448Z,1020.459656
2022-09-11T07:29:28.517Z,1020.440674
2022-09-11T07:30:25.780Z,1020.459656
2022-09-11T07:31:22.871Z,1020.459656
2022-09-11T07:32:23.108Z,1020.532898
2022-09-11T07:33:18.773Z,1020.56781
2022-09-11T07:34:43.338Z,1020.532898
2022-09-11T07:35:23.674Z,1020.591919
2022-09-11T07:36:22.176Z,1020.582275
2022-09-11T07:37:22.986Z,1020.528137
2022-09-11T07:38:21.108Z,1020.601563
2022-09-11T07:39:21.804Z,1020.593384
2022-09-11T07:40:18.140Z,1020.593384
2022-09-11T07:41:22.392Z,1020.585693
2022-09-11T07:42:18.738Z,1020.558655
2022-09-11T07:43:27.199Z,1020.639771
2022-09-11T07:44:23.010Z,1020.604614
2022-09-11T07:45:29.725Z,1020.634949
2022-09-11T07:47:21.648Z,1020.582275
2022-09-11T07:48:28.180Z,1020.593384
2022-09-11T07:49:20.823Z,1020.617432
2022-09-11T07:50:20.920Z,1020.636414
2022-09-11T07:51:16.350Z,1020.563416
2022-09-11T07:52:17.119Z,1020.551697
2022-09-11T07:53:12.506Z,1020.628662
2022-09-11T07:54:15.521Z,1020.6828
2022-09-11T07:55:09.877Z,1020.693848
2022-09-11T07:56:07.078Z,1020.68573
2022-09-11T07:57:07.314Z,1020.631592
2022-09-11T07:58:03.638Z,1020.661926
2022-09-11T07:59:05.710Z,1020.689087
2022-09-11T08:00:00.059Z,1020.689087
2022-09-11T08:00:57.644Z,1020.689087
2022-09-11T08:01:57.681Z,1020.658752
2022-09-11T08:02:53.809Z,1020.669739
2022-09-11T08:04:05.784Z,1020.65387
2022-09-11T08:05:06.517Z,1020.673157
2022-09-11T08:06:04.180Z,1020.637878
2022-09-11T08:07:08.436Z,1020.719116
2022-09-11T08:07:46.987Z,1020.741089
2022-09-11T08:08:49.674Z,1020.703674
2022-09-11T08:09:59.852Z,1020.727173
2022-09-11T08:10:16.418Z,1020.727173
2022-09-11T08:10:16.657Z,1020.727173
2022-09-11T08:10:51.574Z,1020.740479
2022-09-11T08:11:48.635Z,1020.788208
2022-09-11T08:12:46.485Z,1020.745239
2022-09-11T08:13:47.025Z,1020.79718
2022-09-11T08:14:42.697Z,1020.7771
2022-09-11T08:15:48.515Z,1020.864563
2022-09-11T08:18:40.583Z,1020.92511
2022-09-11T08:19:27.964Z,1020.913818
2022-09-11T08:20:25.727Z,1020.940979
2022-09-11T08:21:26.680Z,1020.913818
2022-09-11T08:22:26.671Z,1020.936157
2022-09-11T08:23:26.607Z,1020.915466
2022-09-11T08:24:22.900Z,1020.883484
2022-09-11T08:25:23.208Z,1020.921631
2022-09-11T08:26:21.326Z,1020.859924
2022-09-11T08:27:23.731Z,1020.91687
2022-09-11T08:28:19.186Z,1020.954956
2022-09-11T08:29:22.112Z,1020.947449
2022-09-11T08:30:15.113Z,1020.981995
2022-09-11T08:31:15.590Z,1020.971008
2022-09-11T08:32:10.802Z,1020.97937
2022-09-11T08:33:10.186Z,1021.017395
2022-09-11T08:34:07.739Z,1020.971008
2022-09-11T08:35:10.310Z,1021.001526
2022-09-11T08:37:00.763Z,1021.053711
2022-09-11T08:37:40.702Z,1021.066589
2022-09-11T08:38:38.681Z,1021.071472
2022-09-11T08:39:38.604Z,1021.090332
2022-09-11T08:40:34.967Z,1021.14447
2022-09-11T08:41:38.904Z,1021.068115
2022-09-11T08:42:35.252Z,1021.061584
2022-09-11T08:43:36.941Z,1021.119202
2022-09-11T08:44:35.113Z,1021.18927
2022-09-11T08:45:32.671Z,1021.227478
2022-09-11T08:46:27.834Z,1021.17334
2022-09-11T08:47:25.741Z,1021.122681
2022-09-11T08:48:25.310Z,1021.201782
2022-09-11T08:49:21.726Z,1021.243652
2022-09-11T08:50:24.432Z,1021.184631
2022-09-11T08:51:19.487Z,1021.19574
2022-09-11T08:52:21.791Z,1021.219299
2022-09-11T08:53:14.253Z,1021.265869
2022-09-11T08:54:15.905Z,1021.168701
2022-09-11T08:55:11.227Z,1021.230347
2022-09-11T08:56:10.983Z,1021.203308
2022-09-11T08:57:06.167Z,1021.2547
2022-09-11T08:58:06.643Z,1021.284485
2022-09-11T08:59:03.439Z,1021.20813
2022-09-11T09:00:03.172Z,1021.25116
2022-09-11T09:00:58.647Z,1021.2547
2022-09-11T09:01:56.968Z,1021.283081
2022-09-11T09:02:58.742Z,1021.232422
2022-09-11T09:03:52.365Z,1021.286499
2022-09-11T09:04:54.948Z,1021.329712
2022-09-11T09:05:47.989Z,1021.337219
2022-09-11T09:06:51.302Z,1021.342041
2022-09-11T09:07:45.682Z,1021.369202
2022-09-11T09:08:43.450Z,1021.388489
2022-09-11T09:09:43.076Z,1021.345642
2022-09-11T09:10:38.460Z,1021.302612
2022-09-11T09:11:41.532Z,1021.329712
2022-09-11T09:12:35.246Z,1021.472473
2022-09-11T09:14:21.299Z,1021.382263
2022-09-11T09:15:03.014Z,1021.391418
2022-09-11T09:16:02.259Z,1021.404358
2022-09-11T09:18:02.351Z,1021.399475
2022-09-11T09:19:04.138Z,1021.371216
2022-09-11T09:20:00.528Z,1021.409546
2022-09-11T09:21:02.749Z,1021.350403
2022-09-11T09:21:59.151Z,1021.412048
2022-09-11T09:23:01.103Z,1021.377563
2022-09-11T09:23:59.165Z,1021.407227
2022-09-11T09:25:00.038Z,1021.519104
2022-09-11T09:25:56.646Z,1021.429565
2022-09-11T09:26:59.247Z,1021.465027
2022-09-11T09:27:59.942Z,1021.421936
2022-09-11T09:28:56.635Z,1021.52179
2022-09-11T09:29:57.762Z,1021.476074
2022-09-11T09:30:54.246Z,1021.465027
2022-09-11T09:31:55.557Z,1021.496826
2022-09-11T09:32:52.060Z,1021.480957
2022-09-11T09:33:53.243Z,1021.434204
2022-09-11T09:34:49.687Z,1021.461365
2022-09-11T09:35:52.033Z,1021.488342
2022-09-11T09:36:49.128Z,1021.520325
2022-09-11T09:37:53.811Z,1021.509216
2022-09-11T09:38:52.980Z,1021.529968
2022-09-11T09:39:53.534Z,1021.464844
2022-09-11T09:40:50.882Z,1021.457153
2022-09-11T09:41:49.558Z,1021.457153
2022-09-11T09:42:49.513Z,1021.47583
2022-09-11T09:43:52.703Z,1021.49823
2022-09-11T09:44:46.929Z,1021.482117
2022-09-11T09:45:50.938Z,1021.49823
2022-09-11T09:46:50.661Z,1021.565491
2022-09-11T09:47:48.456Z,1021.5224
2022-09-11T09:48:46.499Z,1021.529968
2022-09-11T09:49:47.709Z,1021.518982
2022-09-11T09:50:44.456Z,1021.56189
2022-09-11T09:51:49.707Z,1021.612854
2022-09-11T09:52:44.896Z,1021.523804
2022-09-11T09:53:47.673Z,1021.577942
2022-09-11T09:54:41.985Z,1021.547546
2022-09-11T09:55:45.095Z,1021.53833
2022-09-11T09:56:44.303Z,1021.648071
2022-09-11T09:57:40.815Z,1021.587646
2022-09-11T09:58:42.609Z,1021.606934
2022-09-11T09:59:39.140Z,1021.568176
2022-09-11T10:00:40.856Z,1021.627075
2022-09-11T10:01:38.933Z,1021.559082
2022-09-11T10:02:43.156Z,1021.606873
2022-09-11T10:03:38.501Z,1021.483826
2022-09-11T10:04:39.223Z,1021.51239
2022-09-11T10:05:42.224Z,1021.574707
2022-09-11T10:07:43.302Z,1021.499756
2022-09-11T10:08:37.824Z,1021.534973
2022-09-11T10:09:39.798Z,1021.534973
2022-09-11T10:10:36.885Z,1021.496704
2022-09-11T10:11:38.249Z,1021.485657
2022-09-11T10:12:35.647Z,1021.571594
2022-09-11T10:14:55.703Z,1021.523743
2022-09-11T10:15:01.490Z,1021.55896
2022-09-11T10:15:59.770Z,1021.569885
2022-09-11T10:17:00.740Z,1021.429138
2022-09-11T10:18:00.546Z,1021.459839
2022-09-11T10:18:59.302Z,1021.563477
2022-09-11T10:19:54.618Z,1021.522034
2022-09-11T10:20:53.858Z,1021.647949
2022-09-11T10:21:49.064Z,1021.483582
2022-09-11T10:22:48.147Z,1021.498352
2022-09-11T10:23:42.753Z,1021.50116
2022-09-11T10:24:45.240Z,1021.570129
2022-09-11T10:25:37.657Z,1021.599854
2022-09-11T10:26:37.701Z,1021.522156
2022-09-11T10:27:34.132Z,1021.523376
2022-09-11T10:28:36.665Z,1021.521912
2022-09-11T10:29:29.354Z,1021.542603
2022-09-11T10:30:30.085Z,1021.598511
2022-09-11T10:31:25.324Z,1021.54425
2022-09-11T10:32:22.553Z,1021.514221
2022-09-11T10:33:19.691Z,1021.490173
2022-09-11T10:34:17.419Z,1021.52063
2022-09-11T10:35:17.017Z,1021.512512
2022-09-11T10:36:12.154Z,1021.55365
2022-09-11T10:37:11.804Z,1021.55365
2022-09-11T10:38:07.057Z,1021.545593
2022-09-11T10:39:07.064Z,1021.646179
2022-09-11T10:40:02.780Z,1021.598389
2022-09-11T10:41:04.029Z,1021.544128
2022-09-11T10:42:49.765Z,1021.593811
2022-09-11T10:43:31.141Z,1021.557129
2022-09-11T10:44:34.212Z,1021.502991
2022-09-11T10:45:30.782Z,1021.58429
2022-09-11T10:46:39.747Z,1021.563599
2022-09-11T10:47:31.501Z,1021.563599
2022-09-11T10:48:28.353Z,1021.552551
2022-09-11T10:49:29.654Z,1021.52832
2022-09-11T10:50:26.576Z,1021.574829
2022-09-11T10:51:27.977Z,1021.550354
2022-09-11T10:52:24.454Z,1021.531311
2022-09-11T10:53:25.797Z,1021.507446
2022-09-11T10:54:22.831Z,1021.480286
2022-09-11T10:55:24.198Z,1021.507446
2022-09-11T10:56:20.616Z,1021.55365
2022-09-11T10:57:24.475Z,1021.566772
2022-09-11T10:58:18.919Z,1021.593811
2022-09-11T10:59:23.057Z,1021.579529
2022-09-11T11:00:17.332Z,1021.622681
2022-09-11T11:01:19.028Z,1021.502991
2022-09-11T11:02:16.243Z,1021.542786
2022-09-11T11:03:17.129Z,1021.547546
2022-09-11T11:04:13.528Z,1021.558716
2022-09-11T11:05:17.410Z,1021.603333
2022-09-11T11:06:12.036Z,1021.587463
2022-09-11T11:07:14.125Z,1021.62738
2022-09-11T11:08:11.253Z,1021.59552
2022-09-11T11:09:09.804Z,1021.598511
2022-09-11T11:10:13.559Z,1021.555481
2022-09-11T11:11:08.660Z,1021.577515
2022-09-11T11:12:11.698Z,1021.61261
2022-09-11T11:13:06.000Z,1021.588684
2022-09-11T11:14:09.435Z,1021.658813
2022-09-11T11:15:03.727Z,1021.496155
2022-09-11T11:16:05.233Z,1021.512512
2022-09-11T11:18:06.429Z,1021.598511
2022-09-11T11:19:01.006Z,1021.587463
2022-09-11T11:20:04.490Z,1021.611389
2022-09-11T11:20:59.733Z,1021.63855
2022-09-11T11:22:36.799Z,1021.587036
2022-09-11T11:23:17.307Z,1021.542297
2022-09-11T11:24:14.629Z,1021.590088
2022-09-11T11:25:14.381Z,1021.606079
2022-09-11T11:26:09.778Z,1021.598572
2022-09-11T11:27:09.199Z,1021.682678
2022-09-11T11:28:05.486Z,1021.612488
2022-09-11T11:29:04.602Z,1021.661865
2022-09-11T11:29:59.935Z,1021.606567
2022-09-11T11:31:03.756Z,1021.582275
2022-09-11T11:32:58.726Z,1021.616211
2022-09-11T11:33:53.941Z,1021.603333
2022-09-11T11:34:53.897Z,1021.525452